sensor_id;sensor_type;location;lat;lon;timestamp;pressure;altitude;pressure_sealevel;temperature;humidity
61394;BME280;48555;50.952;-0.120;2023-06-10T00:00:45;100695.03;;;18.64;72.45
61394;BME280;48555;50.952;-0.120;2023-06-10T00:03:11;100693.19;;;18.56;72.46
61394;BME280;48555;50.952;-0.120;2023-06-10T00:05:37;100697.03;;;18.53;73.06
61394;BME280;48555;50.952;-0.120;2023-06-10T00:08:04;100710.75;;;18.57;73.06
61394;BME280;48555;50.952;-0.120;2023-06-10T00:10:33;100699.50;;;18.55;73.04
61394;BME280;48555;50.952;-0.120;2023-06-10T00:13:00;100695.84;;;18.56;73.16
61394;BME280;48555;50.952;-0.120;2023-06-10T00:15:26;100689.41;;;18.50;73.48
61394;BME280;48555;50.952;-0.120;2023-06-10T00:17:51;100698.00;;;18.52;73.61
61394;BME280;48555;50.952;-0.120;2023-06-10T00:20:18;100696.50;;;18.50;73.83
61394;BME280;48555;50.952;-0.120;2023-06-10T00:22:43;100670.69;;;18.35;73.78
61394;BME280;48555;50.952;-0.120;2023-06-10T00:25:10;100682.75;;;18.46;74.02
61394;BME280;48555;50.952;-0.120;2023-06-10T00:27:36;100681.44;;;18.42;74.06
61394;BME280;48555;50.952;-0.120;2023-06-10T00:30:04;100686.75;;;18.42;74.37
61394;BME280;48555;50.952;-0.120;2023-06-10T00:32:32;100679.94;;;18.39;74.20
61394;BME280;48555;50.952;-0.120;2023-06-10T00:34:58;100688.56;;;18.42;74.19
61394;BME280;48555;50.952;-0.120;2023-06-10T00:37:23;100676.28;;;18.41;74.44
61394;BME280;48555;50.952;-0.120;2023-06-10T00:39:48;100686.06;;;18.40;74.59
61394;BME280;48555;50.952;-0.120;2023-06-10T00:42:14;100674.81;;;18.38;74.64
61394;BME280;48555;50.952;-0.120;2023-06-10T00:44:39;100680.28;;;18.36;74.76
61394;BME280;48555;50.952;-0.120;2023-06-10T00:47:05;100683.06;;;18.35;74.71
61394;BME280;48555;50.952;-0.120;2023-06-10T00:49:31;100678.78;;;18.34;74.84
61394;BME280;48555;50.952;-0.120;2023-06-10T00:51:58;100670.66;;;18.27;75.52
61394;BME280;48555;50.952;-0.120;2023-06-10T00:54:23;100673.44;;;18.26;75.73
61394;BME280;48555;50.952;-0.120;2023-06-10T00:56:49;100674.09;;;18.20;76.34
61394;BME280;48555;50.952;-0.120;2023-06-10T00:59:15;100675.78;;;18.21;76.51
61394;BME280;48555;50.952;-0.120;2023-06-10T01:01:41;100675.91;;;18.19;76.66
61394;BME280;48555;50.952;-0.120;2023-06-10T01:04:08;100669.44;;;18.13;76.85
61394;BME280;48555;50.952;-0.120;2023-06-10T01:07:09;100682.22;;;18.18;76.95
61394;BME280;48555;50.952;-0.120;2023-06-10T01:12:19;100676.91;;;18.18;77.00
61394;BME280;48555;50.952;-0.120;2023-06-10T01:14:48;100677.06;;;18.16;76.70
61394;BME280;48555;50.952;-0.120;2023-06-10T01:17:16;100670.44;;;18.12;77.01
61394;BME280;48555;50.952;-0.120;2023-06-10T01:19:43;100670.44;;;18.12;77.04
61394;BME280;48555;50.952;-0.120;2023-06-10T01:22:09;100669.63;;;18.12;76.84
61394;BME280;48555;50.952;-0.120;2023-06-10T01:24:36;100670.78;;;18.09;77.11
61394;BME280;48555;50.952;-0.120;2023-06-10T01:27:05;100670.09;;;18.07;77.31
61394;BME280;48555;50.952;-0.120;2023-06-10T01:29:41;100659.66;;;18.06;77.26
61394;BME280;48555;50.952;-0.120;2023-06-10T01:32:20;100663.47;;;18.03;77.26
61394;BME280;48555;50.952;-0.120;2023-06-10T01:34:48;100667.09;;;18.02;77.35
61394;BME280;48555;50.952;-0.120;2023-06-10T01:37:17;100664.78;;;17.99;77.30
61394;BME280;48555;50.952;-0.120;2023-06-10T01:39:43;100655.34;;;17.97;77.54
61394;BME280;48555;50.952;-0.120;2023-06-10T01:42:09;100658.16;;;17.95;77.13
61394;BME280;48555;50.952;-0.120;2023-06-10T01:44:35;100653.84;;;17.94;77.45
61394;BME280;48555;50.952;-0.120;2023-06-10T01:47:01;100664.59;;;17.92;77.19
61394;BME280;48555;50.952;-0.120;2023-06-10T01:49:26;100668.06;;;17.93;77.46
61394;BME280;48555;50.952;-0.120;2023-06-10T01:51:53;100659.13;;;17.94;77.23
61394;BME280;48555;50.952;-0.120;2023-06-10T01:54:19;100657.34;;;17.95;77.26
61394;BME280;48555;50.952;-0.120;2023-06-10T01:56:44;100660.81;;;17.95;77.36
61394;BME280;48555;50.952;-0.120;2023-06-10T01:59:09;100667.06;;;17.94;77.33
61394;BME280;48555;50.952;-0.120;2023-06-10T02:01:35;100661.78;;;17.94;77.25
61394;BME280;48555;50.952;-0.120;2023-06-10T02:04:00;100673.22;;;17.95;77.33
61394;BME280;48555;50.952;-0.120;2023-06-10T02:06:25;100673.03;;;17.96;76.74
61394;BME280;48555;50.952;-0.120;2023-06-10T02:08:51;100671.06;;;17.98;76.62
61394;BME280;48555;50.952;-0.120;2023-06-10T02:11:16;100669.09;;;18.00;76.50
61394;BME280;48555;50.952;-0.120;2023-06-10T02:13:42;100670.56;;;18.03;76.12
61394;BME280;48555;50.952;-0.120;2023-06-10T02:16:07;100661.16;;;18.00;75.87
61394;BME280;48555;50.952;-0.120;2023-06-10T02:18:33;100671.41;;;18.03;75.61
61394;BME280;48555;50.952;-0.120;2023-06-10T02:20:58;100665.13;;;18.04;75.62
61394;BME280;48555;50.952;-0.120;2023-06-10T02:23:24;100658.19;;;18.03;75.39
61394;BME280;48555;50.952;-0.120;2023-06-10T02:25:49;100660.84;;;18.03;75.28
61394;BME280;48555;50.952;-0.120;2023-06-10T02:28:15;100670.41;;;18.04;75.10
61394;BME280;48555;50.952;-0.120;2023-06-10T02:30:41;100669.41;;;18.05;74.92
61394;BME280;48555;50.952;-0.120;2023-06-10T02:33:07;100663.31;;;18.05;74.97
61394;BME280;48555;50.952;-0.120;2023-06-10T02:35:39;100663.47;;;18.03;74.94
61394;BME280;48555;50.952;-0.120;2023-06-10T02:38:04;100661.31;;;17.99;74.67
61394;BME280;48555;50.952;-0.120;2023-06-10T02:40:30;100659.34;;;18.01;74.61
61394;BME280;48555;50.952;-0.120;2023-06-10T02:42:56;100664.78;;;17.99;74.70
61394;BME280;48555;50.952;-0.120;2023-06-10T02:45:22;100660.94;;;17.93;74.60
61394;BME280;48555;50.952;-0.120;2023-06-10T02:47:47;100668.38;;;17.90;74.66
61394;BME280;48555;50.952;-0.120;2023-06-10T02:50:13;100669.53;;;17.87;74.73
61394;BME280;48555;50.952;-0.120;2023-06-10T02:52:38;100675.81;;;17.86;74.63
61394;BME280;48555;50.952;-0.120;2023-06-10T02:55:04;100668.03;;;17.85;74.68
61394;BME280;48555;50.952;-0.120;2023-06-10T02:57:29;100672.16;;;17.87;74.66
61394;BME280;48555;50.952;-0.120;2023-06-10T02:59:54;100673.00;;;17.88;74.56
61394;BME280;48555;50.952;-0.120;2023-06-10T03:02:20;100671.53;;;17.85;74.58
61394;BME280;48555;50.952;-0.120;2023-06-10T03:04:45;100669.16;;;17.82;74.47
61394;BME280;48555;50.952;-0.120;2023-06-10T03:07:11;100666.84;;;17.79;74.53
61394;BME280;48555;50.952;-0.120;2023-06-10T03:09:36;100671.44;;;17.77;74.50
61394;BME280;48555;50.952;-0.120;2023-06-10T03:12:02;100664.47;;;17.76;74.63
61394;BME280;48555;50.952;-0.120;2023-06-10T03:14:27;100674.22;;;17.76;74.49
61394;BME280;48555;50.952;-0.120;2023-06-10T03:16:53;100676.22;;;17.74;74.46
61394;BME280;48555;50.952;-0.120;2023-06-10T03:19:18;100673.59;;;17.74;74.46
61394;BME280;48555;50.952;-0.120;2023-06-10T03:21:44;100676.22;;;17.74;74.18
61394;BME280;48555;50.952;-0.120;2023-06-10T03:24:10;100674.72;;;17.71;74.23
61394;BME280;48555;50.952;-0.120;2023-06-10T03:26:36;100674.72;;;17.71;74.06
61394;BME280;48555;50.952;-0.120;2023-06-10T03:29:01;100676.50;;;17.70;74.27
61394;BME280;48555;50.952;-0.120;2023-06-10T03:31:27;100678.34;;;17.70;74.24
61394;BME280;48555;50.952;-0.120;2023-06-10T03:33:52;100674.88;;;17.69;74.20
61394;BME280;48555;50.952;-0.120;2023-06-10T03:36:18;100672.72;;;17.65;74.27
61394;BME280;48555;50.952;-0.120;2023-06-10T03:38:43;100668.91;;;17.67;74.35
61394;BME280;48555;50.952;-0.120;2023-06-10T03:41:08;100673.53;;;17.65;74.05
61394;BME280;48555;50.952;-0.120;2023-06-10T03:43:34;100676.31;;;17.64;73.92
61394;BME280;48555;50.952;-0.120;2023-06-10T03:45:59;100677.31;;;17.63;74.08
61394;BME280;48555;50.952;-0.120;2023-06-10T03:48:24;100671.53;;;17.59;74.03
61394;BME280;48555;50.952;-0.120;2023-06-10T03:50:50;100674.31;;;17.58;74.00
61394;BME280;48555;50.952;-0.120;2023-06-10T03:53:18;100668.50;;;17.54;74.12
61394;BME280;48555;50.952;-0.120;2023-06-10T03:55:44;100673.50;;;17.57;73.88
61394;BME280;48555;50.952;-0.120;2023-06-10T03:58:11;100674.47;;;17.56;73.95
61394;BME280;48555;50.952;-0.120;2023-06-10T04:00:38;100672.81;;;17.55;73.99
61394;BME280;48555;50.952;-0.120;2023-06-10T04:03:09;100668.16;;;17.49;73.98
61394;BME280;48555;50.952;-0.120;2023-06-10T04:05:39;100666.88;;;17.53;73.92
61394;BME280;48555;50.952;-0.120;2023-06-10T04:08:04;100673.81;;;17.54;73.85
61394;BME280;48555;50.952;-0.120;2023-06-10T04:10:30;100667.00;;;17.52;73.84
61394;BME280;48555;50.952;-0.120;2023-06-10T04:12:55;100678.78;;;17.57;73.96
61394;BME280;48555;50.952;-0.120;2023-06-10T04:15:20;100664.72;;;17.57;73.88
61394;BME280;48555;50.952;-0.120;2023-06-10T04:17:46;100671.34;;;17.61;74.10
61394;BME280;48555;50.952;-0.120;2023-06-10T04:20:14;100669.53;;;17.61;73.90
61394;BME280;48555;50.952;-0.120;2023-06-10T04:22:40;100675.34;;;17.65;73.75
61394;BME280;48555;50.952;-0.120;2023-06-10T04:25:06;100670.06;;;17.65;73.83
61394;BME280;48555;50.952;-0.120;2023-06-10T04:27:32;100671.03;;;17.64;73.95
61394;BME280;48555;50.952;-0.120;2023-06-10T04:29:58;100678.81;;;17.65;74.09
61394;BME280;48555;50.952;-0.120;2023-06-10T04:32:23;100674.19;;;17.67;74.25
61394;BME280;48555;50.952;-0.120;2023-06-10T04:34:49;100671.22;;;17.70;74.10
61394;BME280;48555;50.952;-0.120;2023-06-10T04:37:14;100681.06;;;17.78;74.17
61394;BME280;48555;50.952;-0.120;2023-06-10T04:39:39;100681.09;;;17.86;73.75
61394;BME280;48555;50.952;-0.120;2023-06-10T04:42:06;100678.84;;;18.08;73.64
61394;BME280;48555;50.952;-0.120;2023-06-10T04:44:32;100684.59;;;18.46;73.63
61394;BME280;48555;50.952;-0.120;2023-06-10T04:46:57;100679.19;;;18.88;73.12
61394;BME280;48555;50.952;-0.120;2023-06-10T04:49:23;100678.19;;;19.30;72.55
61394;BME280;48555;50.952;-0.120;2023-06-10T04:51:48;100681.59;;;19.71;71.83
61394;BME280;48555;50.952;-0.120;2023-06-10T04:54:13;100682.75;;;20.08;70.87
61394;BME280;48555;50.952;-0.120;2023-06-10T04:56:39;100686.34;;;20.47;70.50
61394;BME280;48555;50.952;-0.120;2023-06-10T04:59:04;100675.66;;;20.86;69.39
61394;BME280;48555;50.952;-0.120;2023-06-10T05:01:30;100680.13;;;21.23;68.59
61394;BME280;48555;50.952;-0.120;2023-06-10T05:03:55;100668.81;;;21.59;67.37
61394;BME280;48555;50.952;-0.120;2023-06-10T05:06:21;100677.97;;;22.01;65.89
61394;BME280;48555;50.952;-0.120;2023-06-10T05:08:46;100679.66;;;22.38;64.64
61394;BME280;48555;50.952;-0.120;2023-06-10T05:11:12;100677.09;;;22.73;63.21
61394;BME280;48555;50.952;-0.120;2023-06-10T05:13:37;100677.81;;;23.03;62.13
61394;BME280;48555;50.952;-0.120;2023-06-10T05:16:03;100668.78;;;23.32;60.81
61394;BME280;48555;50.952;-0.120;2023-06-10T05:18:28;100681.28;;;23.67;59.52
61394;BME280;48555;50.952;-0.120;2023-06-10T05:20:54;100675.69;;;23.90;58.82
61394;BME280;48555;50.952;-0.120;2023-06-10T05:23:20;100670.63;;;24.15;57.61
61394;BME280;48555;50.952;-0.120;2023-06-10T05:25:45;100677.06;;;24.34;57.12
61394;BME280;48555;50.952;-0.120;2023-06-10T05:28:11;100673.84;;;24.58;55.99
61394;BME280;48555;50.952;-0.120;2023-06-10T05:30:36;100679.44;;;24.83;55.07
61394;BME280;48555;50.952;-0.120;2023-06-10T05:33:03;100674.50;;;25.07;54.20
61394;BME280;48555;50.952;-0.120;2023-06-10T05:35:28;100684.38;;;25.26;53.26
61394;BME280;48555;50.952;-0.120;2023-06-10T05:37:53;100680.22;;;25.44;52.81
61394;BME280;48555;50.952;-0.120;2023-06-10T05:40:19;100688.63;;;25.60;52.42
61394;BME280;48555;50.952;-0.120;2023-06-10T05:42:44;100661.00;;;25.67;51.89
61394;BME280;48555;50.952;-0.120;2023-06-10T05:45:10;100679.25;;;25.96;51.13
61394;BME280;48555;50.952;-0.120;2023-06-10T05:47:35;100683.78;;;26.02;50.55
61394;BME280;48555;50.952;-0.120;2023-06-10T05:50:01;100684.88;;;25.81;50.46
61394;BME280;48555;50.952;-0.120;2023-06-10T05:52:26;100687.66;;;25.48;50.74
61394;BME280;48555;50.952;-0.120;2023-06-10T05:54:51;100686.03;;;25.14;51.23
61394;BME280;48555;50.952;-0.120;2023-06-10T05:57:17;100687.88;;;24.87;52.06
61394;BME280;48555;50.952;-0.120;2023-06-10T05:59:42;100691.78;;;24.71;52.50
61394;BME280;48555;50.952;-0.120;2023-06-10T06:02:08;100690.53;;;24.67;53.03
61394;BME280;48555;50.952;-0.120;2023-06-10T06:04:34;100690.31;;;24.75;52.79
61394;BME280;48555;50.952;-0.120;2023-06-10T06:06:59;100701.03;;;24.95;52.49
61394;BME280;48555;50.952;-0.120;2023-06-10T06:09:25;100696.31;;;25.17;52.16
61394;BME280;48555;50.952;-0.120;2023-06-10T06:11:50;100702.69;;;25.36;51.63
61394;BME280;48555;50.952;-0.120;2023-06-10T06:14:15;100701.44;;;25.45;51.35
61394;BME280;48555;50.952;-0.120;2023-06-10T06:16:41;100694.03;;;25.47;51.23
61394;BME280;48555;50.952;-0.120;2023-06-10T06:19:06;100701.59;;;25.64;51.36
61394;BME280;48555;50.952;-0.120;2023-06-10T06:21:31;100691.47;;;25.79;50.91
61394;BME280;48555;50.952;-0.120;2023-06-10T06:23:58;100702.09;;;26.12;50.33
61394;BME280;48555;50.952;-0.120;2023-06-10T06:26:24;100704.38;;;26.54;49.22
61394;BME280;48555;50.952;-0.120;2023-06-10T06:28:50;100700.91;;;27.03;48.35
61394;BME280;48555;50.952;-0.120;2023-06-10T06:31:15;100695.06;;;27.56;47.63
61394;BME280;48555;50.952;-0.120;2023-06-10T06:33:41;100698.06;;;28.03;46.11
61394;BME280;48555;50.952;-0.120;2023-06-10T06:36:06;100694.63;;;28.45;45.41
61394;BME280;48555;50.952;-0.120;2023-06-10T06:38:32;100701.50;;;28.83;44.69
61394;BME280;48555;50.952;-0.120;2023-06-10T06:40:57;100698.47;;;29.03;43.35
61394;BME280;48555;50.952;-0.120;2023-06-10T06:43:28;100703.41;;;29.17;43.09
61394;BME280;48555;50.952;-0.120;2023-06-10T06:45:54;100698.47;;;29.38;42.71
61394;BME280;48555;50.952;-0.120;2023-06-10T06:48:20;100700.63;;;29.36;42.57
61394;BME280;48555;50.952;-0.120;2023-06-10T06:50:45;100690.06;;;29.23;42.84
61394;BME280;48555;50.952;-0.120;2023-06-10T06:53:11;100691.22;;;29.27;42.56
61394;BME280;48555;50.952;-0.120;2023-06-10T06:55:37;100693.00;;;29.33;42.54
61394;BME280;48555;50.952;-0.120;2023-06-10T06:58:02;100687.94;;;29.48;42.16
61394;BME280;48555;50.952;-0.120;2023-06-10T07:00:29;100698.94;;;29.58;41.99
61394;BME280;48555;50.952;-0.120;2023-06-10T07:02:54;100692.16;;;29.68;42.14
61394;BME280;48555;50.952;-0.120;2023-06-10T07:05:20;100693.53;;;29.82;42.22
61394;BME280;48555;50.952;-0.120;2023-06-10T07:07:45;100691.28;;;29.91;41.10
61394;BME280;48555;50.952;-0.120;2023-06-10T07:10:11;100688.34;;;29.92;41.37
61394;BME280;48555;50.952;-0.120;2023-06-10T07:12:36;100688.06;;;29.65;40.69
61394;BME280;48555;50.952;-0.120;2023-06-10T07:15:02;100691.34;;;29.43;41.51
61394;BME280;48555;50.952;-0.120;2023-06-10T07:17:27;100700.50;;;29.31;42.08
61394;BME280;48555;50.952;-0.120;2023-06-10T07:19:53;100699.09;;;29.28;42.62
61394;BME280;48555;50.952;-0.120;2023-06-10T07:22:18;100697.44;;;29.39;42.87
61394;BME280;48555;50.952;-0.120;2023-06-10T07:24:43;100686.41;;;29.40;42.59
61394;BME280;48555;50.952;-0.120;2023-06-10T07:27:09;100687.69;;;29.50;42.90
61394;BME280;48555;50.952;-0.120;2023-06-10T07:29:35;100688.66;;;29.43;41.78
61394;BME280;48555;50.952;-0.120;2023-06-10T07:32:02;100695.31;;;29.29;42.41
61394;BME280;48555;50.952;-0.120;2023-06-10T07:34:27;100691.22;;;29.27;42.77
61394;BME280;48555;50.952;-0.120;2023-06-10T07:36:53;100695.09;;;29.19;42.60
61394;BME280;48555;50.952;-0.120;2023-06-10T07:39:18;100690.53;;;29.19;42.85
61394;BME280;48555;50.952;-0.120;2023-06-10T07:41:44;100691.47;;;29.13;42.50
61394;BME280;48555;50.952;-0.120;2023-06-10T07:44:09;100689.84;;;29.12;42.87
61394;BME280;48555;50.952;-0.120;2023-06-10T07:46:34;100693.69;;;29.05;42.42
61394;BME280;48555;50.952;-0.120;2023-06-10T07:49:00;100696.13;;;28.94;42.73
61394;BME280;48555;50.952;-0.120;2023-06-10T07:51:25;100699.97;;;28.87;42.54
61394;BME280;48555;50.952;-0.120;2023-06-10T07:53:51;100693.97;;;28.73;42.50
61394;BME280;48555;50.952;-0.120;2023-06-10T07:56:16;100691.81;;;28.51;42.56
61394;BME280;48555;50.952;-0.120;2023-06-10T07:58:41;100686.91;;;28.48;43.11
61394;BME280;48555;50.952;-0.120;2023-06-10T08:01:07;100694.72;;;28.50;43.31
61394;BME280;48555;50.952;-0.120;2023-06-10T08:03:32;100690.31;;;28.56;43.17
61394;BME280;48555;50.952;-0.120;2023-06-10T08:05:58;100691.00;;;28.51;42.97
61394;BME280;48555;50.952;-0.120;2023-06-10T08:08:23;100697.81;;;28.53;43.23
61394;BME280;48555;50.952;-0.120;2023-06-10T08:10:48;100703.06;;;28.60;43.26
61394;BME280;48555;50.952;-0.120;2023-06-10T08:13:14;100701.56;;;28.64;42.93
61394;BME280;48555;50.952;-0.120;2023-06-10T08:15:40;100699.31;;;28.61;43.19
61394;BME280;48555;50.952;-0.120;2023-06-10T08:18:05;100702.19;;;28.78;43.15
61394;BME280;48555;50.952;-0.120;2023-06-10T08:20:31;100700.53;;;28.77;42.63
61394;BME280;48555;50.952;-0.120;2023-06-10T08:22:57;100700.53;;;28.77;42.90
61394;BME280;48555;50.952;-0.120;2023-06-10T08:25:22;100709.00;;;28.92;42.79
61394;BME280;48555;50.952;-0.120;2023-06-10T08:27:48;100712.97;;;28.90;42.56
61394;BME280;48555;50.952;-0.120;2023-06-10T08:30:13;100708.84;;;28.87;42.50
61394;BME280;48555;50.952;-0.120;2023-06-10T08:32:39;100709.94;;;28.98;42.55
61394;BME280;48555;50.952;-0.120;2023-06-10T08:35:05;100726.00;;;29.05;42.15
61394;BME280;48555;50.952;-0.120;2023-06-10T08:37:30;100731.72;;;29.08;41.94
61394;BME280;48555;50.952;-0.120;2023-06-10T08:39:56;100736.94;;;28.91;42.14
61394;BME280;48555;50.952;-0.120;2023-06-10T08:42:35;100736.19;;;29.03;42.23
61394;BME280;48555;50.952;-0.120;2023-06-10T08:45:04;100735.16;;;29.04;42.40
61394;BME280;48555;50.952;-0.120;2023-06-10T08:47:33;100735.03;;;29.10;42.63
61394;BME280;48555;50.952;-0.120;2023-06-10T08:50:03;100739.25;;;29.30;42.71
61394;BME280;48555;50.952;-0.120;2023-06-10T08:52:35;100737.00;;;29.50;42.27
61394;BME280;48555;50.952;-0.120;2023-06-10T08:55:37;100744.66;;;29.65;41.70
61394;BME280;48555;50.952;-0.120;2023-06-10T08:58:03;100734.09;;;29.75;41.52
61394;BME280;48555;50.952;-0.120;2023-06-10T09:00:30;100721.28;;;29.82;41.16
61394;BME280;48555;50.952;-0.120;2023-06-10T09:02:56;100730.28;;;30.00;41.51
61394;BME280;48555;50.952;-0.120;2023-06-10T09:05:22;100729.41;;;30.11;41.37
61394;BME280;48555;50.952;-0.120;2023-06-10T09:07:48;100732.09;;;30.23;40.53
61394;BME280;48555;50.952;-0.120;2023-06-10T09:10:13;100734.44;;;30.31;40.25
61394;BME280;48555;50.952;-0.120;2023-06-10T09:12:39;100722.94;;;30.36;40.28
61394;BME280;48555;50.952;-0.120;2023-06-10T09:15:06;100726.03;;;30.44;40.69
61394;BME280;48555;50.952;-0.120;2023-06-10T09:17:32;100722.78;;;30.42;40.41
61394;BME280;48555;50.952;-0.120;2023-06-10T09:19:59;100731.56;;;30.38;39.88
61394;BME280;48555;50.952;-0.120;2023-06-10T09:22:25;100726.06;;;30.32;40.53
61394;BME280;48555;50.952;-0.120;2023-06-10T09:25:01;100731.28;;;30.22;39.61
61394;BME280;48555;50.952;-0.120;2023-06-10T09:27:29;100733.03;;;30.17;39.86
61394;BME280;48555;50.952;-0.120;2023-06-10T09:29:55;100739.03;;;30.19;39.96
61394;BME280;48555;50.952;-0.120;2023-06-10T09:32:21;100740.06;;;30.18;39.27
61394;BME280;48555;50.952;-0.120;2023-06-10T09:34:47;100736.00;;;30.15;39.66
61394;BME280;48555;50.952;-0.120;2023-06-10T09:37:19;100737.38;;;30.18;39.21
61394;BME280;48555;50.952;-0.120;2023-06-10T09:40:03;100743.34;;;30.20;39.32
61394;BME280;48555;50.952;-0.120;2023-06-10T09:42:33;100750.75;;;30.24;39.26
61394;BME280;48555;50.952;-0.120;2023-06-10T09:45:01;100749.22;;;30.17;39.10
61394;BME280;48555;50.952;-0.120;2023-06-10T09:47:26;100741.59;;;30.14;39.25
61394;BME280;48555;50.952;-0.120;2023-06-10T09:49:51;100746.78;;;30.15;39.48
61394;BME280;48555;50.952;-0.120;2023-06-10T09:52:28;100735.97;;;30.27;39.61
61394;BME280;48555;50.952;-0.120;2023-06-10T09:54:59;100733.84;;;30.29;38.95
61394;BME280;48555;50.952;-0.120;2023-06-10T09:57:25;100731.88;;;30.24;39.39
61394;BME280;48555;50.952;-0.120;2023-06-10T09:59:54;100737.50;;;30.23;39.33
61394;BME280;48555;50.952;-0.120;2023-06-10T10:02:20;100732.34;;;30.21;38.83
61394;BME280;48555;50.952;-0.120;2023-06-10T10:04:45;100732.44;;;30.26;39.23
61394;BME280;48555;50.952;-0.120;2023-06-10T10:07:11;100729.78;;;30.43;39.46
61394;BME280;48555;50.952;-0.120;2023-06-10T10:09:38;100732.44;;;30.55;39.85
61394;BME280;48555;50.952;-0.120;2023-06-10T10:12:14;100736.63;;;30.63;39.18
61394;BME280;48555;50.952;-0.120;2023-06-10T10:14:47;100734.75;;;30.63;39.07
61394;BME280;48555;50.952;-0.120;2023-06-10T10:17:14;100734.16;;;30.61;38.87
61394;BME280;48555;50.952;-0.120;2023-06-10T10:19:46;100729.63;;;30.50;38.63
61394;BME280;48555;50.952;-0.120;2023-06-10T10:22:40;100733.66;;;30.47;38.35
61394;BME280;48555;50.952;-0.120;2023-06-10T10:25:13;100725.09;;;30.50;38.38
61394;BME280;48555;50.952;-0.120;2023-06-10T10:28:09;100732.81;;;30.47;38.54
61394;BME280;48555;50.952;-0.120;2023-06-10T10:30:57;100728.16;;;30.42;38.86
61394;BME280;48555;50.952;-0.120;2023-06-10T10:36:18;100738.81;;;30.49;38.71
61394;BME280;48555;50.952;-0.120;2023-06-10T10:38:45;100734.06;;;30.56;38.64
61394;BME280;48555;50.952;-0.120;2023-06-10T10:41:13;100732.44;;;30.55;38.34
61394;BME280;48555;50.952;-0.120;2023-06-10T10:43:39;100731.84;;;30.53;37.71
61394;BME280;48555;50.952;-0.120;2023-06-10T10:46:16;100726.22;;;30.54;37.79
61394;BME280;48555;50.952;-0.120;2023-06-10T10:48:43;100723.41;;;30.49;37.43
61394;BME280;48555;50.952;-0.120;2023-06-10T10:51:10;100726.31;;;30.60;36.77
61394;BME280;48555;50.952;-0.120;2023-06-10T10:53:39;100732.38;;;30.67;36.68
61394;BME280;48555;50.952;-0.120;2023-06-10T10:56:12;100711.78;;;30.77;36.20
61394;BME280;48555;50.952;-0.120;2023-06-10T10:58:38;100715.56;;;30.93;36.68
61394;BME280;48555;50.952;-0.120;2023-06-10T11:01:11;100717.19;;;31.11;37.26
61394;BME280;48555;50.952;-0.120;2023-06-10T11:03:42;100723.16;;;31.30;36.47
61394;BME280;48555;50.952;-0.120;2023-06-10T11:06:14;100714.25;;;31.30;35.00
61394;BME280;48555;50.952;-0.120;2023-06-10T11:11:21;100719.06;;;31.28;35.27
61394;BME280;48555;50.952;-0.120;2023-06-10T11:14:29;100714.41;;;31.23;34.57
61394;BME280;48555;50.952;-0.120;2023-06-10T11:16:57;100714.81;;;31.15;35.14
61394;BME280;48555;50.952;-0.120;2023-06-10T11:19:36;100721.00;;;31.32;34.41
61394;BME280;48555;50.952;-0.120;2023-06-10T11:22:05;100718.19;;;31.39;34.44
61394;BME280;48555;50.952;-0.120;2023-06-10T11:24:31;100725.22;;;31.40;34.07
61394;BME280;48555;50.952;-0.120;2023-06-10T11:32:34;100718.72;;;31.41;33.92
61394;BME280;48555;50.952;-0.120;2023-06-10T11:35:04;100722.09;;;31.48;33.82
61394;BME280;48555;50.952;-0.120;2023-06-10T11:37:29;100719.44;;;31.53;33.76
61394;BME280;48555;50.952;-0.120;2023-06-10T11:39:55;100723.09;;;31.42;34.18
61394;BME280;48555;50.952;-0.120;2023-06-10T11:42:22;100722.63;;;31.50;34.11
61394;BME280;48555;50.952;-0.120;2023-06-10T11:44:52;100734.41;;;31.61;33.48
61394;BME280;48555;50.952;-0.120;2023-06-10T11:47:18;100730.00;;;31.55;33.78
61394;BME280;48555;50.952;-0.120;2023-06-10T11:49:44;100720.44;;;31.47;33.82
61394;BME280;48555;50.952;-0.120;2023-06-10T11:52:10;100726.31;;;31.61;33.53
61394;BME280;48555;50.952;-0.120;2023-06-10T11:54:37;100723.91;;;31.64;33.31
61394;BME280;48555;50.952;-0.120;2023-06-10T11:57:03;100712.47;;;31.57;33.17
61394;BME280;48555;50.952;-0.120;2023-06-10T11:59:29;100718.34;;;31.71;33.10
61394;BME280;48555;50.952;-0.120;2023-06-10T12:01:55;100729.91;;;31.66;32.82
61394;BME280;48555;50.952;-0.120;2023-06-10T12:04:21;100732.84;;;31.65;33.14
61394;BME280;48555;50.952;-0.120;2023-06-10T12:06:52;100725.22;;;31.62;33.46
61394;BME280;48555;50.952;-0.120;2023-06-10T12:09:29;100720.97;;;31.66;33.70
61394;BME280;48555;50.952;-0.120;2023-06-10T12:12:04;100709.53;;;31.81;33.37
61394;BME280;48555;50.952;-0.120;2023-06-10T12:17:36;100707.94;;;31.85;33.10
61394;BME280;48555;50.952;-0.120;2023-06-10T12:20:07;100717.25;;;31.72;33.34
61394;BME280;48555;50.952;-0.120;2023-06-10T12:22:43;100710.59;;;31.80;33.15
61394;BME280;48555;50.952;-0.120;2023-06-10T12:25:10;100711.66;;;31.79;33.51
61394;BME280;48555;50.952;-0.120;2023-06-10T12:27:36;100704.94;;;31.81;32.66
61394;BME280;48555;50.952;-0.120;2023-06-10T12:30:03;100701.13;;;31.77;33.57
61394;BME280;48555;50.952;-0.120;2023-06-10T12:35:04;100701.22;;;31.87;32.94
61394;BME280;48555;50.952;-0.120;2023-06-10T12:37:30;100704.75;;;31.88;32.90
61394;BME280;48555;50.952;-0.120;2023-06-10T12:40:03;100700.81;;;31.96;33.76
61394;BME280;48555;50.952;-0.120;2023-06-10T12:42:29;100700.31;;;31.99;32.43
61394;BME280;48555;50.952;-0.120;2023-06-10T12:44:55;100706.91;;;31.86;31.82
61394;BME280;48555;50.952;-0.120;2023-06-10T12:47:32;100700.91;;;31.84;32.87
61394;BME280;48555;50.952;-0.120;2023-06-10T12:50:00;100706.81;;;31.81;32.18
61394;BME280;48555;50.952;-0.120;2023-06-10T12:52:25;100716.31;;;31.83;30.71
61394;BME280;48555;50.952;-0.120;2023-06-10T12:54:51;100709.06;;;31.67;30.31
61394;BME280;48555;50.952;-0.120;2023-06-10T12:57:17;100718.13;;;31.56;31.31
61394;BME280;48555;50.952;-0.120;2023-06-10T12:59:42;100704.41;;;31.40;32.53